sensor_id;sensor_type;location;lat;lon;timestamp;P1;durP1;ratioP1;P2;durP2;ratioP2
26951;SDS011;14507;52.418;13.398;2024-03-08T10:12:43;43.70;;;18.98;;
26951;SDS011;14507;52.418;13.398;2024-03-08T10:15:10;40.78;;;20.23;;
26951;SDS011;14507;52.418;13.398;2024-03-08T10:17:37;37.85;;;18.98;;
26951;SDS011;14507;52.418;13.398;2024-03-08T10:20:12;39.22;;;18.35;;
26951;SDS011;14507;52.418;13.398;2024-03-08T10:22:42;38.55;;;18.38;;
26951;SDS011;14507;52.418;13.398;2024-03-08T10:25:09;39.27;;;18.90;;
26951;SDS011;14507;52.418;13.398;2024-03-08T10:27:36;37.45;;;19.02;;
26951;SDS011;14507;52.418;13.398;2024-03-08T10:30:03;39.55;;;17.70;;
26951;SDS011;14507;52.418;13.398;2024-03-08T10:32:31;38.72;;;17.35;;
26951;SDS011;14507;52.418;13.398;2024-03-08T10:34:56;35.00;;;16.80;;
26951;SDS011;14507;52.418;13.398;2024-03-08T10:37:22;37.40;;;17.70;;
26951;SDS011;14507;52.418;13.398;2024-03-08T10:39:56;37.88;;;18.00;;
26951;SDS011;14507;52.418;13.398;2024-03-08T10:42:40;36.47;;;17.00;;
26951;SDS011;14507;52.418;13.398;2024-03-08T10:48:04;35.35;;;15.75;;
26951;SDS011;14507;52.418;13.398;2024-03-08T10:51:02;34.95;;;17.35;;
26951;SDS011;14507;52.418;13.398;2024-03-08T10:53:28;32.90;;;16.73;;
26951;SDS011;14507;52.418;13.398;2024-03-08T10:55:57;37.17;;;17.70;;
26951;SDS011;14507;52.418;13.398;2024-03-08T10:58:24;34.50;;;17.00;;
26951;SDS011;14507;52.418;13.398;2024-03-08T11:00:52;35.45;;;17.33;;
26951;SDS011;14507;52.418;13.398;2024-03-08T11:06:11;30.33;;;15.85;;
26951;SDS011;14507;52.418;13.398;2024-03-08T11:08:40;35.97;;;16.52;;
26951;SDS011;14507;52.418;13.398;2024-03-08T11:11:09;36.72;;;16.80;;
26951;SDS011;14507;52.418;13.398;2024-03-08T11:13:52;30.90;;;16.02;;
26951;SDS011;14507;52.418;13.398;2024-03-08T11:18:54;34.08;;;15.00;;
26951;SDS011;14507;52.418;13.398;2024-03-08T11:21:24;29.55;;;15.07;;
26951;SDS011;14507;52.418;13.398;2024-03-08T11:24:01;32.08;;;14.95;;
26951;SDS011;14507;52.418;13.398;2024-03-08T11:26:30;33.53;;;15.57;;
26951;SDS011;14507;52.418;13.398;2024-03-08T11:29:32;28.02;;;15.52;;
26951;SDS011;14507;52.418;13.398;2024-03-08T11:31:50;28.27;;;14.50;;
26951;SDS011;14507;52.418;13.398;2024-03-08T11:34:16;29.98;;;14.23;;
26951;SDS011;14507;52.418;13.398;2024-03-08T11:36:43;31.83;;;14.93;;
26951;SDS011;14507;52.418;13.398;2024-03-08T11:39:13;30.08;;;14.48;;
26951;SDS011;14507;52.418;13.398;2024-03-08T11:41:40;27.52;;;15.20;;
26951;SDS011;14507;52.418;13.398;2024-03-08T11:44:07;32.72;;;14.95;;
26951;SDS011;14507;52.418;13.398;2024-03-08T11:46:33;29.80;;;14.23;;
26951;SDS011;14507;52.418;13.398;2024-03-08T11:48:59;23.33;;;12.93;;
26951;SDS011;14507;52.418;13.398;2024-03-08T11:51:25;23.92;;;12.20;;
26951;SDS011;14507;52.418;13.398;2024-03-08T11:53:51;26.13;;;12.90;;
26951;SDS011;14507;52.418;13.398;2024-03-08T11:56:18;29.05;;;15.15;;
26951;SDS011;14507;52.418;13.398;2024-03-08T11:58:53;27.58;;;14.63;;
26951;SDS011;14507;52.418;13.398;2024-03-08T12:01:22;28.45;;;12.90;;
26951;SDS011;14507;52.418;13.398;2024-03-08T12:03:55;23.23;;;11.43;;
26951;SDS011;14507;52.418;13.398;2024-03-08T12:06:24;24.05;;;11.82;;
26951;SDS011;14507;52.418;13.398;2024-03-08T12:08:50;26.00;;;13.40;;
26951;SDS011;14507;52.418;13.398;2024-03-08T12:11:19;28.63;;;12.73;;
26951;SDS011;14507;52.418;13.398;2024-03-08T12:13:49;26.05;;;12.57;;
26951;SDS011;14507;52.418;13.398;2024-03-08T12:16:19;22.80;;;11.57;;
26951;SDS011;14507;52.418;13.398;2024-03-08T12:18:46;25.60;;;11.48;;
26951;SDS011;14507;52.418;13.398;2024-03-08T12:21:13;23.80;;;11.32;;
26951;SDS011;14507;52.418;13.398;2024-03-08T12:23:42;27.15;;;12.23;;
26951;SDS011;14507;52.418;13.398;2024-03-08T12:26:09;22.95;;;11.80;;
26951;SDS011;14507;52.418;13.398;2024-03-08T12:28:39;24.13;;;11.70;;
26951;SDS011;14507;52.418;13.398;2024-03-08T12:31:06;27.35;;;12.30;;
26951;SDS011;14507;52.418;13.398;2024-03-08T12:33:48;21.25;;;10.80;;
26951;SDS011;14507;52.418;13.398;2024-03-08T12:36:15;23.27;;;12.10;;
26951;SDS011;14507;52.418;13.398;2024-03-08T12:38:45;24.73;;;13.00;;
26951;SDS011;14507;52.418;13.398;2024-03-08T12:41:18;28.65;;;13.02;;
26951;SDS011;14507;52.418;13.398;2024-03-08T12:43:47;32.00;;;12.95;;
26951;SDS011;14507;52.418;13.398;2024-03-08T12:46:16;25.90;;;12.27;;
26951;SDS011;14507;52.418;13.398;2024-03-08T12:48:42;24.23;;;13.07;;
26951;SDS011;14507;52.418;13.398;2024-03-08T12:51:12;25.52;;;12.52;;
26951;SDS011;14507;52.418;13.398;2024-03-08T12:53:38;26.17;;;13.48;;
26951;SDS011;14507;52.418;13.398;2024-03-08T12:56:09;24.52;;;12.63;;
26951;SDS011;14507;52.418;13.398;2024-03-08T12:58:35;26.42;;;11.52;;
26951;SDS011;14507;52.418;13.398;2024-03-08T13:01:01;22.35;;;11.98;;
26951;SDS011;14507;52.418;13.398;2024-03-08T13:03:30;21.50;;;10.60;;
26951;SDS011;14507;52.418;13.398;2024-03-08T13:05:56;26.40;;;12.13;;
26951;SDS011;14507;52.418;13.398;2024-03-08T13:08:22;23.33;;;11.98;;
26951;SDS011;14507;52.418;13.398;2024-03-08T13:10:50;30.27;;;12.88;;
26951;SDS011;14507;52.418;13.398;2024-03-08T13:13:16;25.48;;;11.88;;
26951;SDS011;14507;52.418;13.398;2024-03-08T13:15:42;25.75;;;11.93;;
26951;SDS011;14507;52.418;13.398;2024-03-08T13:18:08;25.58;;;12.10;;
26951;SDS011;14507;52.418;13.398;2024-03-08T13:20:35;26.40;;;12.75;;
26951;SDS011;14507;52.418;13.398;2024-03-08T13:23:03;26.40;;;12.73;;
26951;SDS011;14507;52.418;13.398;2024-03-08T13:25:30;26.17;;;13.43;;
26951;SDS011;14507;52.418;13.398;2024-03-08T13:27:56;34.75;;;16.15;;
26951;SDS011;14507;52.418;13.398;2024-03-08T13:30:24;34.10;;;16.90;;
26951;SDS011;14507;52.418;13.398;2024-03-08T13:32:51;39.92;;;18.88;;
26951;SDS011;14507;52.418;13.398;2024-03-08T13:35:18;29.95;;;15.45;;
26951;SDS011;14507;52.418;13.398;2024-03-08T13:37:49;25.30;;;13.80;;
26951;SDS011;14507;52.418;13.398;2024-03-08T13:40:15;32.38;;;16.08;;
26951;SDS011;14507;52.418;13.398;2024-03-08T13:42:43;30.40;;;15.23;;
26951;SDS011;14507;52.418;13.398;2024-03-08T13:45:09;32.83;;;15.02;;
26951;SDS011;14507;52.418;13.398;2024-03-08T13:47:42;21.55;;;12.05;;
26951;SDS011;14507;52.418;13.398;2024-03-08T13:50:08;25.85;;;12.45;;
26951;SDS011;14507;52.418;13.398;2024-03-08T13:52:40;22.13;;;12.95;;
26951;SDS011;14507;52.418;13.398;2024-03-08T13:55:06;26.27;;;13.18;;
26951;SDS011;14507;52.418;13.398;2024-03-08T13:57:33;28.85;;;14.75;;
26951;SDS011;14507;52.418;13.398;2024-03-08T13:59:59;26.35;;;14.38;;
26951;SDS011;14507;52.418;13.398;2024-03-08T14:02:24;32.03;;;15.02;;
26951;SDS011;14507;52.418;13.398;2024-03-08T14:04:54;31.00;;;16.45;;
26951;SDS011;14507;52.418;13.398;2024-03-08T14:07:20;26.77;;;14.50;;
26951;SDS011;14507;52.418;13.398;2024-03-08T14:09:46;27.58;;;15.23;;
26951;SDS011;14507;52.418;13.398;2024-03-08T14:12:11;28.20;;;13.77;;
26951;SDS011;14507;52.418;13.398;2024-03-08T14:14:38;28.70;;;14.63;;
26951;SDS011;14507;52.418;13.398;2024-03-08T14:17:07;26.33;;;14.40;;
26951;SDS011;14507;52.418;13.398;2024-03-08T14:19:34;28.10;;;13.73;;
26951;SDS011;14507;52.418;13.398;2024-03-08T14:22:00;25.98;;;13.70;;
26951;SDS011;14507;52.418;13.398;2024-03-08T14:24:29;28.83;;;12.77;;
26951;SDS011;14507;52.418;13.398;2024-03-08T14:27:00;25.42;;;12.50;;
26951;SDS011;14507;52.418;13.398;2024-03-08T14:29:28;26.23;;;12.70;;
26951;SDS011;14507;52.418;13.398;2024-03-08T14:31:54;24.92;;;12.40;;
26951;SDS011;14507;52.418;13.398;2024-03-08T14:34:23;26.50;;;13.57;;
26951;SDS011;14507;52.418;13.398;2024-03-08T14:36:52;30.30;;;14.00;;
26951;SDS011;14507;52.418;13.398;2024-03-08T14:39:18;28.65;;;13.90;;
26951;SDS011;14507;52.418;13.398;2024-03-08T14:41:51;29.30;;;14.07;;
26951;SDS011;14507;52.418;13.398;2024-03-08T14:44:21;26.87;;;12.70;;
26951;SDS011;14507;52.418;13.398;2024-03-08T14:46:54;28.42;;;13.43;;
26951;SDS011;14507;52.418;13.398;2024-03-08T14:49:23;31.23;;;13.68;;
26951;SDS011;14507;52.418;13.398;2024-03-08T14:51:51;33.92;;;14.27;;
26951;SDS011;14507;52.418;13.398;2024-03-08T14:54:16;29.65;;;12.90;;
26951;SDS011;14507;52.418;13.398;2024-03-08T14:56:47;31.50;;;14.15;;
26951;SDS011;14507;52.418;13.398;2024-03-08T14:59:15;30.60;;;13.95;;
26951;SDS011;14507;52.418;13.398;2024-03-08T15:01:41;27.08;;;13.70;;
26951;SDS011;14507;52.418;13.398;2024-03-08T15:04:08;30.38;;;13.65;;
26951;SDS011;14507;52.418;13.398;2024-03-08T15:06:35;26.73;;;13.32;;
26951;SDS011;14507;52.418;13.398;2024-03-08T15:09:02;26.43;;;13.43;;
26951;SDS011;14507;52.418;13.398;2024-03-08T15:11:44;27.85;;;13.38;;
26951;SDS011;14507;52.418;13.398;2024-03-08T15:14:10;26.02;;;12.43;;
26951;SDS011;14507;52.418;13.398;2024-03-08T15:16:40;27.35;;;12.10;;
26951;SDS011;14507;52.418;13.398;2024-03-08T15:19:07;23.15;;;12.30;;
26951;SDS011;14507;52.418;13.398;2024-03-08T15:21:33;24.25;;;12.23;;
26951;SDS011;14507;52.418;13.398;2024-03-08T15:23:59;25.35;;;12.05;;
26951;SDS011;14507;52.418;13.398;2024-03-08T15:26:28;21.10;;;11.75;;
26951;SDS011;14507;52.418;13.398;2024-03-08T15:28:57;25.52;;;12.73;;
26951;SDS011;14507;52.418;13.398;2024-03-08T15:31:23;25.38;;;11.52;;
26951;SDS011;14507;52.418;13.398;2024-03-08T15:33:52;28.27;;;11.57;;
26951;SDS011;14507;52.418;13.398;2024-03-08T15:36:25;25.45;;;11.82;;
26951;SDS011;14507;52.418;13.398;2024-03-08T15:38:56;22.13;;;11.30;;
26951;SDS011;14507;52.418;13.398;2024-03-08T15:41:22;20.17;;;10.18;;
26951;SDS011;14507;52.418;13.398;2024-03-08T15:43:48;21.10;;;10.00;;
26951;SDS011;14507;52.418;13.398;2024-03-08T15:46:14;20.35;;;9.52;;
26951;SDS011;14507;52.418;13.398;2024-03-08T15:48:41;20.52;;;10.38;;
26951;SDS011;14507;52.418;13.398;2024-03-08T15:51:07;19.83;;;9.93;;
26951;SDS011;14507;52.418;13.398;2024-03-08T15:53:35;25.00;;;10.05;;
26951;SDS011;14507;52.418;13.398;2024-03-08T15:56:01;21.20;;;10.52;;
26951;SDS011;14507;52.418;13.398;2024-03-08T15:58:28;20.80;;;9.93;;
26951;SDS011;14507;52.418;13.398;2024-03-08T16:00:55;23.52;;;11.27;;
26951;SDS011;14507;52.418;13.398;2024-03-08T16:03:21;21.42;;;10.77;;
26951;SDS011;14507;52.418;13.398;2024-03-08T16:05:47;25.13;;;11.95;;
26951;SDS011;14507;52.418;13.398;2024-03-08T16:08:14;22.50;;;11.82;;
26951;SDS011;14507;52.418;13.398;2024-03-08T16:10:42;27.30;;;12.68;;
26951;SDS011;14507;52.418;13.398;2024-03-08T16:13:11;26.10;;;13.27;;
26951;SDS011;14507;52.418;13.398;2024-03-08T16:15:37;23.85;;;12.63;;
26951;SDS011;14507;52.418;13.398;2024-03-08T16:18:03;26.92;;;13.07;;
26951;SDS011;14507;52.418;13.398;2024-03-08T16:20:30;24.92;;;12.82;;
26951;SDS011;14507;52.418;13.398;2024-03-08T16:22:57;29.13;;;12.73;;
26951;SDS011;14507;52.418;13.398;2024-03-08T16:25:22;25.13;;;12.35;;
26951;SDS011;14507;52.418;13.398;2024-03-08T16:27:48;20.13;;;11.80;;
26951;SDS011;14507;52.418;13.398;2024-03-08T16:30:15;24.13;;;11.90;;
26951;SDS011;14507;52.418;13.398;2024-03-08T16:32:44;22.45;;;11.30;;
26951;SDS011;14507;52.418;13.398;2024-03-08T16:35:12;22.35;;;10.88;;
26951;SDS011;14507;52.418;13.398;2024-03-08T16:37:41;25.67;;;11.48;;
26951;SDS011;14507;52.418;13.398;2024-03-08T16:40:07;21.20;;;10.57;;
26951;SDS011;14507;52.418;13.398;2024-03-08T16:42:41;22.70;;;11.80;;
26951;SDS011;14507;52.418;13.398;2024-03-08T16:45:07;27.13;;;11.82;;
26951;SDS011;14507;52.418;13.398;2024-03-08T16:47:41;28.38;;;12.32;;
26951;SDS011;14507;52.418;13.398;2024-03-08T16:50:07;22.75;;;11.88;;
26951;SDS011;14507;52.418;13.398;2024-03-08T16:52:36;27.40;;;13.27;;
26951;SDS011;14507;52.418;13.398;2024-03-08T16:55:02;30.27;;;13.85;;
26951;SDS011;14507;52.418;13.398;2024-03-08T16:57:31;26.58;;;13.63;;
26951;SDS011;14507;52.418;13.398;2024-03-08T16:59:59;30.58;;;14.30;;
26951;SDS011;14507;52.418;13.398;2024-03-08T17:02:31;26.83;;;12.75;;
26951;SDS011;14507;52.418;13.398;2024-03-08T17:04:57;25.40;;;12.93;;
26951;SDS011;14507;52.418;13.398;2024-03-08T17:07:22;28.40;;;14.45;;
26951;SDS011;14507;52.418;13.398;2024-03-08T17:09:48;30.00;;;14.55;;
26951;SDS011;14507;52.418;13.398;2024-03-08T17:12:13;29.95;;;14.10;;
26951;SDS011;14507;52.418;13.398;2024-03-08T17:14:43;30.35;;;13.68;;
26951;SDS011;14507;52.418;13.398;2024-03-08T17:17:09;27.33;;;14.02;;
26951;SDS011;14507;52.418;13.398;2024-03-08T17:19:35;26.15;;;13.55;;
26951;SDS011;14507;52.418;13.398;2024-03-08T17:22:00;28.02;;;13.70;;
26951;SDS011;14507;52.418;13.398;2024-03-08T17:24:28;29.50;;;15.43;;
26951;SDS011;14507;52.418;13.398;2024-03-08T17:26:54;33.15;;;14.82;;
26951;SDS011;14507;52.418;13.398;2024-03-08T17:29:20;29.65;;;14.07;;
26951;SDS011;14507;52.418;13.398;2024-03-08T17:34:15;31.33;;;14.73;;
26951;SDS011;14507;52.418;13.398;2024-03-08T17:36:43;35.30;;;15.85;;
26951;SDS011;14507;52.418;13.398;2024-03-08T17:39:17;32.70;;;15.07;;
26951;SDS011;14507;52.418;13.398;2024-03-08T17:41:46;29.17;;;14.30;;
26951;SDS011;14507;52.418;13.398;2024-03-08T17:44:16;31.88;;;15.15;;
26951;SDS011;14507;52.418;13.398;2024-03-08T17:46:43;29.75;;;15.13;;
26951;SDS011;14507;52.418;13.398;2024-03-08T17:49:11;31.73;;;15.15;;
26951;SDS011;14507;52.418;13.398;2024-03-08T17:51:37;35.40;;;14.73;;
26951;SDS011;14507;52.418;13.398;2024-03-08T17:54:04;29.85;;;15.38;;
26951;SDS011;14507;52.418;13.398;2024-03-08T17:56:42;29.95;;;15.38;;
26951;SDS011;14507;52.418;13.398;2024-03-08T17:59:10;29.80;;;14.25;;
26951;SDS011;14507;52.418;13.398;2024-03-08T18:01:37;31.48;;;15.43;;
26951;SDS011;14507;52.418;13.398;2024-03-08T18:04:08;33.10;;;15.52;;
26951;SDS011;14507;52.418;13.398;2024-03-08T18:06:35;28.17;;;15.70;;
26951;SDS011;14507;52.418;13.398;2024-03-08T18:09:06;37.20;;;17.40;;
26951;SDS011;14507;52.418;13.398;2024-03-08T18:11:38;32.55;;;16.33;;
26951;SDS011;14507;52.418;13.398;2024-03-08T18:14:05;32.47;;;16.70;;
26951;SDS011;14507;52.418;13.398;2024-03-08T18:16:38;31.25;;;15.52;;
26951;SDS011;14507;52.418;13.398;2024-03-08T18:19:04;33.65;;;16.88;;
26951;SDS011;14507;52.418;13.398;2024-03-08T18:21:33;33.78;;;16.45;;
26951;SDS011;14507;52.418;13.398;2024-03-08T18:24:01;32.78;;;16.25;;
26951;SDS011;14507;52.418;13.398;2024-03-08T18:26:29;33.55;;;16.80;;
26951;SDS011;14507;52.418;13.398;2024-03-08T18:28:58;34.67;;;16.33;;
26951;SDS011;14507;52.418;13.398;2024-03-08T18:31:24;36.40;;;17.08;;
26951;SDS011;14507;52.418;13.398;2024-03-08T18:33:51;37.17;;;17.00;;
26951;SDS011;14507;52.418;13.398;2024-03-08T18:36:17;33.92;;;17.92;;
26951;SDS011;14507;52.418;13.398;2024-03-08T18:38:43;33.80;;;16.45;;
26951;SDS011;14507;52.418;13.398;2024-03-08T18:41:09;33.75;;;17.40;;
26951;SDS011;14507;52.418;13.398;2024-03-08T18:43:34;34.55;;;18.13;;
26951;SDS011;14507;52.418;13.398;2024-03-08T18:46:01;36.28;;;16.80;;
26951;SDS011;14507;52.418;13.398;2024-03-08T18:48:29;35.10;;;17.80;;
26951;SDS011;14507;52.418;13.398;2024-03-08T18:50:55;36.15;;;18.13;;
26951;SDS011;14507;52.418;13.398;2024-03-08T18:53:24;35.97;;;18.08;;
26951;SDS011;14507;52.418;13.398;2024-03-08T18:55:50;38.47;;;18.65;;
26951;SDS011;14507;52.418;13.398;2024-03-08T18:58:16;39.50;;;18.95;;
26951;SDS011;14507;52.418;13.398;2024-03-08T19:00:42;37.67;;;19.10;;
26951;SDS011;14507;52.418;13.398;2024-03-08T19:03:14;36.83;;;19.23;;
26951;SDS011;14507;52.418;13.398;2024-03-08T19:05:41;37.60;;;19.10;;
26951;SDS011;14507;52.418;13.398;2024-03-08T19:08:10;41.05;;;20.23;;
26951;SDS011;14507;52.418;13.398;2024-03-08T19:10:38;39.22;;;19.60;;
26951;SDS011;14507;52.418;13.398;2024-03-08T19:13:04;36.75;;;17.95;;
26951;SDS011;14507;52.418;13.398;2024-03-08T19:15:30;39.75;;;18.88;;
26951;SDS011;14507;52.418;13.398;2024-03-08T19:17:57;41.70;;;18.67;;
26951;SDS011;14507;52.418;13.398;2024-03-08T19:20:25;39.22;;;18.40;;
26951;SDS011;14507;52.418;13.398;2024-03-08T19:22:52;38.35;;;17.80;;
26951;SDS011;14507;52.418;13.398;2024-03-08T19:25:22;37.08;;;18.20;;
26951;SDS011;14507;52.418;13.398;2024-03-08T19:27:56;35.95;;;18.65;;
26951;SDS011;14507;52.418;13.398;2024-03-08T19:30:23;42.28;;;19.42;;
26951;SDS011;14507;52.418;13.398;2024-03-08T19:32:52;39.22;;;18.30;;
26951;SDS011;14507;52.418;13.398;2024-03-08T19:35:22;38.35;;;18.05;;
26951;SDS011;14507;52.418;13.398;2024-03-08T19:37:49;40.40;;;18.73;;
26951;SDS011;14507;52.418;13.398;2024-03-08T19:40:20;37.30;;;18.63;;
26951;SDS011;14507;52.418;13.398;2024-03-08T19:42:52;39.90;;;19.23;;
26951;SDS011;14507;52.418;13.398;2024-03-08T19:45:20;41.20;;;19.88;;
26951;SDS011;14507;52.418;13.398;2024-03-08T19:47:51;42.65;;;18.67;;
26951;SDS011;14507;52.418;13.398;2024-03-08T19:52:57;40.60;;;18.52;;
26951;SDS011;14507;52.418;13.398;2024-03-08T19:55:31;44.53;;;18.70;;
26951;SDS011;14507;52.418;13.398;2024-03-08T19:58:00;41.88;;;20.20;;
26951;SDS011;14507;52.418;13.398;2024-03-08T20:00:27;35.83;;;17.50;;
26951;SDS011;14507;52.418;13.398;2024-03-08T20:02:59;36.53;;;18.75;;
26951;SDS011;14507;52.418;13.398;2024-03-08T20:05:29;40.47;;;19.20;;
26951;SDS011;14507;52.418;13.398;2024-03-08T20:07:55;40.90;;;19.27;;
26951;SDS011;14507;52.418;13.398;2024-03-08T20:10:22;47.47;;;19.45;;
26951;SDS011;14507;52.418;13.398;2024-03-08T20:12:49;38.92;;;20.50;;
26951;SDS011;14507;52.418;13.398;2024-03-08T20:15:16;43.80;;;19.30;;
26951;SDS011;14507;52.418;13.398;2024-03-08T20:17:44;40.45;;;19.90;;
26951;SDS011;14507;52.418;13.398;2024-03-08T20:20:10;41.20;;;19.48;;
26951;SDS011;14507;52.418;13.398;2024-03-08T20:22:41;44.00;;;20.27;;
26951;SDS011;14507;52.418;13.398;2024-03-08T20:25:17;45.33;;;19.83;;
26951;SDS011;14507;52.418;13.398;2024-03-08T20:27:44;37.90;;;20.33;;
26951;SDS011;14507;52.418;13.398;2024-03-08T20:30:14;38.10;;;19.25;;
26951;SDS011;14507;52.418;13.398;2024-03-08T20:32:46;49.85;;;19.95;;
26951;SDS011;14507;52.418;13.398;2024-03-08T20:35:31;39.38;;;19.35;;
26951;SDS011;14507;52.418;13.398;2024-03-08T20:38:02;42.30;;;19.42;;
26951;SDS011;14507;52.418;13.398;2024-03-08T20:40:33;47.60;;;20.55;;
26951;SDS011;14507;52.418;13.398;2024-03-08T20:43:04;45.83;;;20.30;;
26951;SDS011;14507;52.418;13.398;2024-03-08T20:45:34;40.47;;;20.40;;
26951;SDS011;14507;52.418;13.398;2024-03-08T20:48:01;42.30;;;19.83;;
26951;SDS011;14507;52.418;13.398;2024-03-08T20:50:28;42.25;;;19.58;;
26951;SDS011;14507;52.418;13.398;2024-03-08T20:52:54;39.08;;;19.38;;
26951;SDS011;14507;52.418;13.398;2024-03-08T20:55:20;42.72;;;19.95;;
26951;SDS011;14507;52.418;13.398;2024-03-08T20:57:50;46.63;;;20.95;;
26951;SDS011;14507;52.418;13.398;2024-03-08T21:00:19;45.85;;;20.70;;
26951;SDS011;14507;52.418;13.398;2024-03-08T21:03:08;41.50;;;20.55;;
26951;SDS011;14507;52.418;13.398;2024-03-08T21:05:36;45.08;;;21.55;;
26951;SDS011;14507;52.418;13.398;2024-03-08T21:08:03;40.45;;;19.50;;
26951;SDS011;14507;52.418;13.398;2024-03-08T21:10:33;43.70;;;21.13;;
26951;SDS011;14507;52.418;13.398;2024-03-08T21:13:03;46.88;;;20.67;;
26951;SDS011;14507;52.418;13.398;2024-03-08T21:15:29;43.00;;;20.48;;
26951;SDS011;14507;52.418;13.398;2024-03-08T21:17:55;42.78;;;21.40;;
26951;SDS011;14507;52.418;13.398;2024-03-08T21:20:22;54.45;;;22.23;;
26951;SDS011;14507;52.418;13.398;2024-03-08T21:22:49;43.08;;;22.10;;
26951;SDS011;14507;52.418;13.398;2024-03-08T21:25:16;44.30;;;21.67;;
26951;SDS011;14507;52.418;13.398;2024-03-08T21:27:45;44.03;;;21.33;;
26951;SDS011;14507;52.418;13.398;2024-03-08T21:30:15;48.05;;;20.73;;
26951;SDS011;14507;52.418;13.398;2024-03-08T21:32:48;46.17;;;21.27;;
26951;SDS011;14507;52.418;13.398;2024-03-08T21:35:15;43.08;;;20.10;;
26951;SDS011;14507;52.418;13.398;2024-03-08T21:37:44;43.25;;;20.77;;
26951;SDS011;14507;52.418;13.398;2024-03-08T21:40:11;43.25;;;21.52;;
26951;SDS011;14507;52.418;13.398;2024-03-08T21:42:37;45.75;;;21.27;;
26951;SDS011;14507;52.418;13.398;2024-03-08T21:45:05;45.22;;;21.55;;
26951;SDS011;14507;52.418;13.398;2024-03-08T21:47:31;41.22;;;21.55;;
26951;SDS011;14507;52.418;13.398;2024-03-08T21:49:57;47.25;;;21.52;;
26951;SDS011;14507;52.418;13.398;2024-03-08T21:52:23;50.80;;;21.65;;
26951;SDS011;14507;52.418;13.398;2024-03-08T21:54:49;41.33;;;22.17;;
26951;SDS011;14507;52.418;13.398;2024-03-08T21:57:15;43.17;;;20.90;;
26951;SDS011;14507;52.418;13.398;2024-03-08T21:59:44;47.28;;;22.00;;
26951;SDS011;14507;52.418;13.398;2024-03-08T22:02:10;47.83;;;21.52;;
26951;SDS011;14507;52.418;13.398;2024-03-08T22:04:36;45.50;;;22.27;;
26951;SDS011;14507;52.418;13.398;2024-03-08T22:07:01;46.45;;;22.63;;
26951;SDS011;14507;52.418;13.398;2024-03-08T22:09:29;49.92;;;22.73;;
26951;SDS011;14507;52.418;13.398;2024-03-08T22:11:58;45.03;;;21.77;;
26951;SDS011;14507;52.418;13.398;2024-03-08T22:14:24;48.03;;;21.75;;
26951;SDS011;14507;52.418;13.398;2024-03-08T22:16:49;45.42;;;22.20;;
26951;SDS011;14507;52.418;13.398;2024-03-08T22:19:15;47.90;;;22.52;;
26951;SDS011;14507;52.418;13.398;2024-03-08T22:21:43;48.47;;;23.98;;
26951;SDS011;14507;52.418;13.398;2024-03-08T22:24:10;49.33;;;23.27;;
26951;SDS011;14507;52.418;13.398;2024-03-08T22:26:35;47.80;;;23.90;;
26951;SDS011;14507;52.418;13.398;2024-03-08T22:29:01;49.50;;;23.95;;
26951;SDS011;14507;52.418;13.398;2024-03-08T22:31:28;55.45;;;24.08;;
26951;SDS011;14507;52.418;13.398;2024-03-08T22:33:54;42.85;;;22.33;;
26951;SDS011;14507;52.418;13.398;2024-03-08T22:36:20;45.40;;;23.25;;
26951;SDS011;14507;52.418;13.398;2024-03-08T22:41:13;50.78;;;23.73;;
26951;SDS011;14507;52.418;13.398;2024-03-08T22:43:40;46.17;;;22.92;;
26951;SDS011;14507;52.418;13.398;2024-03-08T22:46:06;60.58;;;24.17;;
26951;SDS011;14507;52.418;13.398;2024-03-08T22:48:34;48.08;;;23.65;;
26951;SDS011;14507;52.418;13.398;2024-03-08T22:51:01;50.55;;;25.05;;
26951;SDS011;14507;52.418;13.398;2024-03-08T22:53:32;56.72;;;25.48;;
26951;SDS011;14507;52.418;13.398;2024-03-08T22:55:59;52.80;;;23.52;;
26951;SDS011;14507;52.418;13.398;2024-03-08T22:58:25;50.85;;;23.77;;
26951;SDS011;14507;52.418;13.398;2024-03-08T23:00:52;51.25;;;24.88;;
26951;SDS011;14507;52.418;13.398;2024-03-08T23:03:22;53.42;;;25.23;;
26951;SDS011;14507;52.418;13.398;2024-03-08T23:05:51;53.53;;;23.57;;
26951;SDS011;14507;52.418;13.398;2024-03-08T23:08:18;53.05;;;24.30;;
26951;SDS011;14507;52.418;13.398;2024-03-08T23:10:47;51.80;;;24.40;;
26951;SDS011;14507;52.418;13.398;2024-03-08T23:13:13;60.22;;;25.55;;
26951;SDS011;14507;52.418;13.398;2024-03-08T23:15:41;55.22;;;25.85;;
26951;SDS011;14507;52.418;13.398;2024-03-08T23:18:08;48.63;;;24.90;;
26951;SDS011;14507;52.418;13.398;2024-03-08T23:20:40;54.75;;;25.00;;
26951;SDS011;14507;52.418;13.398;2024-03-08T23:23:10;54.45;;;25.27;;
26951;SDS011;14507;52.418;13.398;2024-03-08T23:25:37;59.13;;;26.42;;
26951;SDS011;14507;52.418;13.398;2024-03-08T23:28:03;54.50;;;26.10;;
26951;SDS011;14507;52.418;13.398;2024-03-08T23:30:32;60.45;;;26.50;;
26951;SDS011;14507;52.418;13.398;2024-03-08T23:32:59;50.23;;;24.97;;
26951;SDS011;14507;52.418;13.398;2024-03-08T23:35:26;59.92;;;26.35;;
26951;SDS011;14507;52.418;13.398;2024-03-08T23:37:56;57.88;;;27.25;;
26951;SDS011;14507;52.418;13.398;2024-03-08T23:40:22;55.28;;;26.60;;
26951;SDS011;14507;52.418;13.398;2024-03-08T23:42:48;52.47;;;27.40;;
26951;SDS011;14507;52.418;13.398;2024-03-08T23:45:16;64.35;;;28.02;;
26951;SDS011;14507;52.418;13.398;2024-03-08T23:47:49;56.70;;;27.08;;
26951;SDS011;14507;52.418;13.398;2024-03-08T23:50:19;54.03;;;25.98;;
26951;SDS011;14507;52.418;13.398;2024-03-08T23:52:50;56.80;;;26.75;;
26951;SDS011;14507;52.418;13.398;2024-03-08T23:55:29;59.10;;;27.48;;
26951;SDS011;14507;52.418;13.398;2024-03-08T23:57:58;52.40;;;26.45;;
